Private Wetterstation Sandau
Wetterdaten: Sonntag, 23.12.2012
Datum Zeit Temp. A. Feuchte A. Luftdruck Regen Wind Richtung Richtung Taupunkt Windchill
23.12.2012 00:01 -1,9 C 93 % 1013,6 hPa 0,0 l/m 18,4 km/h (3 Bft) O-NO 67 -2,9 C -7,4 C
23.12.2012 00:06 -1,9 C 93 % 1013,6 hPa 0,0 l/m 7,9 km/h (2 Bft) O-NO 67 -2,9 C -4,9 C
23.12.2012 00:11 -1,9 C 93 % 1013,5 hPa 0,0 l/m 7,6 km/h (2 Bft) O-NO 67 -2,9 C -4,8 C
23.12.2012 00:16 -1,9 C 93 % 1013,5 hPa 0,0 l/m 12,2 km/h (2 Bft) O-NO 67 -2,9 C -6,2 C
23.12.2012 00:21 -1,9 C 93 % 1013,4 hPa 0,0 l/m 10,4 km/h (2 Bft) O-NO 67 -2,9 C -5,7 C
23.12.2012 00:26 -2,0 C 93 % 1013,4 hPa 0,0 l/m 6,5 km/h (2 Bft) O-NO 67 -3,0 C -4,5 C
23.12.2012 00:31 -2,0 C 93 % 1013,4 hPa 0,0 l/m 6,5 km/h (2 Bft) O-NO 67 -3,0 C -4,5 C
23.12.2012 00:36 -2,0 C 93 % 1013,3 hPa 0,0 l/m 13,7 km/h (3 Bft) O-NO 67 -3,0 C -6,6 C
23.12.2012 00:41 -2,0 C 93 % 1013,2 hPa 0,0 l/m 7,9 km/h (2 Bft) O-NO 67 -3,0 C -5,1 C
23.12.2012 00:46 -2,1 C 93 % 1013,2 hPa 0,0 l/m 11,2 km/h (2 Bft) O-NO 67 -3,1 C -6,1 C
23.12.2012 00:51 -2,0 C 93 % 1013,0 hPa 0,0 l/m 15,8 km/h (3 Bft) O-NO 67 -3,0 C -7,0 C
23.12.2012 00:56 -2,0 C 93 % 1013,1 hPa 0,0 l/m 14,0 km/h (3 Bft) O-NO 67 -3,0 C -6,7 C
23.12.2012 01:01 -2,0 C 93 % 1012,8 hPa 0,0 l/m 9,0 km/h (2 Bft) O-NO 67 -3,0 C -5,4 C
23.12.2012 01:06 -2,0 C 93 % 1012,8 hPa 0,0 l/m 11,9 km/h (2 Bft) O-NO 67 -3,0 C -6,2 C
23.12.2012 01:11 -2,1 C 93 % 1012,7 hPa 0,0 l/m 13,7 km/h (3 Bft) O-NO 67 -3,1 C -6,7 C
23.12.2012 01:16 -2,1 C 93 % 1012,5 hPa 0,0 l/m 12,2 km/h (2 Bft) O-NO 67 -3,1 C -6,4 C
23.12.2012 01:21 -2,0 C 93 % 1012,6 hPa 0,0 l/m 6,1 km/h (2 Bft) O-NO 67 -3,0 C -4,4 C
23.12.2012 01:26 -2,0 C 93 % 1012,4 hPa 0,0 l/m 7,2 km/h (2 Bft) O-NO 67 -3,0 C -4,8 C
23.12.2012 01:31 -1,9 C 93 % 1012,3 hPa 0,0 l/m 15,1 km/h (3 Bft) O-NO 67 -2,9 C -6,8 C
23.12.2012 01:36 -1,9 C 93 % 1012,4 hPa 0,0 l/m 13,7 km/h (3 Bft) O-NO 67 -2,9 C -6,5 C
23.12.2012 01:41 -1,9 C 93 % 1012,3 hPa 0,0 l/m 12,2 km/h (2 Bft) O-NO 67 -2,9 C -6,2 C
23.12.2012 01:46 -1,9 C 93 % 1012,5 hPa 0,0 l/m 18,4 km/h (3 Bft) O-NO 67 -2,9 C -7,4 C
23.12.2012 01:51 -1,9 C 93 % 1012,4 hPa 0,0 l/m 20,5 km/h (4 Bft) O-NO 67 -2,9 C -7,7 C
23.12.2012 01:56 -1,8 C 93 % 1012,1 hPa 0,0 l/m 13,0 km/h (3 Bft) O-NO 67 -2,8 C -6,2 C
23.12.2012 02:01 -1,8 C 93 % 1012,4 hPa 0,0 l/m 17,6 km/h (3 Bft) O-NO 67 -2,8 C -7,1 C
23.12.2012 02:06 -1,8 C 93 % 1012,5 hPa 0,0 l/m 8,3 km/h (2 Bft) O-NO 67 -2,8 C -5,0 C
23.12.2012 02:11 -1,8 C 93 % 1012,4 hPa 0,0 l/m 9,7 km/h (2 Bft) O-NO 67 -2,8 C -5,4 C
23.12.2012 02:16 -1,7 C 93 % 1012,3 hPa 0,0 l/m 24,1 km/h (4 Bft) O-NO 67 -2,7 C -8,0 C
23.12.2012 02:21 -1,7 C 93 % 1012,3 hPa 0,0 l/m 15,5 km/h (3 Bft) O-NO 67 -2,7 C -6,6 C
23.12.2012 02:26 -1,7 C 93 % 1012,4 hPa 0,0 l/m 16,9 km/h (3 Bft) O-NO 67 -2,7 C -6,9 C
23.12.2012 02:31 -1,7 C 93 % 1012,4 hPa 0,0 l/m 17,3 km/h (3 Bft) O-NO 67 -2,7 C -6,9 C
23.12.2012 02:36 -1,6 C 93 % 1012,4 hPa 0,0 l/m 7,9 km/h (2 Bft) O-NO 67 -2,6 C -4,6 C
23.12.2012 02:41 -1,6 C 93 % 1012,4 hPa 0,0 l/m 5,0 km/h (1 Bft) O-NO 67 -2,6 C -3,4 C
23.12.2012 02:46 -1,6 C 93 % 1012,0 hPa 0,0 l/m 7,9 km/h (2 Bft) O-NO 67 -2,6 C -4,6 C
23.12.2012 02:51 -1,6 C 93 % 1012,1 hPa 0,0 l/m 7,6 km/h (2 Bft) O-NO 67 -2,6 C -4,5 C
23.12.2012 02:56 -1,5 C 93 % 1012,1 hPa 0,0 l/m 5,8 km/h (2 Bft) O-NO 67 -2,5 C -3,7 C
23.12.2012 03:01 -1,5 C 93 % 1012,0 hPa 0,0 l/m 8,3 km/h (2 Bft) O-NO 67 -2,5 C -4,6 C
23.12.2012 03:06 -1,4 C 93 % 1012,0 hPa 0,0 l/m 6,5 km/h (2 Bft) O-NO 67 -2,4 C -3,8 C
23.12.2012 03:11 -1,4 C 93 % 1012,0 hPa 0,0 l/m 10,1 km/h (2 Bft) O-NO 67 -2,4 C -5,0 C
23.12.2012 03:16 -1,4 C 93 % 1012,0 hPa 0,0 l/m 14,4 km/h (3 Bft) O-NO 67 -2,4 C -6,0 C
23.12.2012 03:21 -1,4 C 93 % 1011,7 hPa 0,0 l/m 10,1 km/h (2 Bft) O-NO 67 -2,4 C -5,0 C
23.12.2012 03:26 -1,4 C 93 % 1011,8 hPa 0,0 l/m 12,6 km/h (3 Bft) O-NO 67 -2,4 C -5,6 C
23.12.2012 03:31 -1,3 C 93 % 1011,7 hPa 0,0 l/m 8,6 km/h (2 Bft) O-NO 67 -2,3 C -4,5 C
23.12.2012 03:36 -1,3 C 93 % 1011,7 hPa 0,0 l/m 7,6 km/h (2 Bft) O-NO 67 -2,3 C -4,1 C
23.12.2012 03:41 -1,3 C 93 % 1011,6 hPa 0,0 l/m 6,8 km/h (2 Bft) O-NO 67 -2,3 C -3,8 C
23.12.2012 03:46 -1,2 C 93 % 1011,5 hPa 0,0 l/m 17,3 km/h (3 Bft) O-NO 67 -2,2 C -6,3 C
23.12.2012 03:51 -1,2 C 93 % 1011,3 hPa 0,0 l/m 17,6 km/h (3 Bft) O-NO 67 -2,2 C -6,4 C
23.12.2012 03:56 -1,2 C 93 % 1011,1 hPa 0,0 l/m 7,2 km/h (2 Bft) O-NO 67 -2,2 C -3,9 C
23.12.2012 04:01 -1,2 C 93 % 1011,0 hPa 0,0 l/m 14,0 km/h (3 Bft) O-NO 67 -2,2 C -5,7 C
23.12.2012 04:06 -1,2 C 93 % 1011,0 hPa 0,0 l/m 12,2 km/h (2 Bft) O-NO 67 -2,2 C -5,3 C
23.12.2012 04:11 -1,2 C 93 % 1010,9 hPa 0,0 l/m 8,3 km/h (2 Bft) O-NO 67 -2,2 C -4,2 C
23.12.2012 04:16 -1,2 C 93 % 1010,8 hPa 0,0 l/m 19,1 km/h (3 Bft) O-NO 67 -2,2 C -6,6 C
23.12.2012 04:21 -1,1 C 93 % 1010,7 hPa 0,0 l/m 19,1 km/h (3 Bft) O-NO 67 -2,1 C -6,5 C
23.12.2012 04:26 -1,2 C 93 % 1010,7 hPa 0,0 l/m 18,7 km/h (3 Bft) O-NO 67 -2,2 C -6,6 C
23.12.2012 04:31 -1,2 C 93 % 1010,9 hPa 0,0 l/m 8,3 km/h (2 Bft) O-NO 67 -2,2 C -4,2 C
23.12.2012 04:36 -1,2 C 93 % 1010,9 hPa 0,0 l/m 13,7 km/h (3 Bft) O-NO 67 -2,2 C -5,6 C
23.12.2012 04:41 -1,2 C 93 % 1010,9 hPa 0,0 l/m 15,8 km/h (3 Bft) O-NO 67 -2,2 C -6,0 C
23.12.2012 04:46 -1,2 C 93 % 1010,9 hPa 0,0 l/m 14,8 km/h (3 Bft) O-NO 67 -2,2 C -5,9 C
23.12.2012 04:51 -1,2 C 93 % 1010,8 hPa 0,0 l/m 18,4 km/h (3 Bft) O-NO 67 -2,2 C -6,5 C
23.12.2012 04:56 -1,2 C 93 % 1010,3 hPa 0,0 l/m 19,8 km/h (3 Bft) O-NO 67 -2,2 C -6,7 C
23.12.2012 05:01 -1,2 C 93 % 1010,3 hPa 0,0 l/m 23,4 km/h (4 Bft) O-NO 67 -2,2 C -7,2 C
23.12.2012 05:06 -1,2 C 93 % 1010,4 hPa 0,0 l/m 10,4 km/h (2 Bft) O-NO 67 -2,2 C -4,9 C
23.12.2012 05:11 -1,2 C 93 % 1010,3 hPa 0,0 l/m 7,2 km/h (2 Bft) O-NO 67 -2,2 C -3,9 C
23.12.2012 05:16 -1,2 C 93 % 1010,5 hPa 0,0 l/m 9,7 km/h (2 Bft) O-NO 67 -2,2 C -4,7 C
23.12.2012 05:21 -1,2 C 93 % 1010,4 hPa 0,0 l/m 10,8 km/h (2 Bft) O-NO 67 -2,2 C -5,0 C
23.12.2012 05:26 -1,2 C 93 % 1010,3 hPa 0,0 l/m 14,4 km/h (3 Bft) O-NO 67 -2,2 C -5,8 C
23.12.2012 05:31 -1,2 C 93 % 1010,0 hPa 0,0 l/m 10,8 km/h (2 Bft) O-NO 67 -2,2 C -5,0 C
23.12.2012 05:36 -1,2 C 93 % 1010,0 hPa 0,0 l/m 16,2 km/h (3 Bft) O-NO 67 -2,2 C -6,1 C
23.12.2012 05:41 -1,2 C 93 % 1010,3 hPa 0,0 l/m 7,9 km/h (2 Bft) O-NO 67 -2,2 C -4,1 C
23.12.2012 05:46 -1,2 C 93 % 1010,2 hPa 0,0 l/m 8,3 km/h (2 Bft) O-NO 67 -2,2 C -4,2 C
23.12.2012 05:51 -1,2 C 93 % 1010,1 hPa 0,0 l/m 17,3 km/h (3 Bft) O-NO 67 -2,2 C -6,3 C
23.12.2012 05:56 -1,1 C 93 % 1010,2 hPa 0,0 l/m 16,9 km/h (3 Bft) O-NO 67 -2,1 C -6,1 C
23.12.2012 06:01 -1,1 C 93 % 1010,2 hPa 0,0 l/m 20,9 km/h (4 Bft) O-NO 67 -2,1 C -6,8 C
23.12.2012 06:06 -1,1 C 93 % 1010,1 hPa 0,0 l/m 13,3 km/h (3 Bft) O-NO 67 -2,1 C -5,4 C
23.12.2012 06:11 -1,1 C 93 % 1009,9 hPa 0,0 l/m 14,8 km/h (3 Bft) O-NO 67 -2,1 C -5,7 C
23.12.2012 06:16 -1,1 C 93 % 1009,8 hPa 0,0 l/m 13,0 km/h (3 Bft) O-NO 67 -2,1 C -5,4 C
23.12.2012 06:21 -1,1 C 93 % 1009,9 hPa 0,0 l/m 9,7 km/h (2 Bft) O-NO 67 -2,1 C -4,5 C
23.12.2012 06:26 -1,1 C 93 % 1010,2 hPa 0,0 l/m 13,7 km/h (3 Bft) O-NO 67 -2,1 C -5,5 C
23.12.2012 06:31 -1,1 C 93 % 1009,8 hPa 0,0 l/m 22,7 km/h (4 Bft) O-NO 67 -2,1 C -7,0 C
23.12.2012 06:36 -1,1 C 93 % 1009,8 hPa 0,0 l/m 10,1 km/h (2 Bft) O-NO 67 -2,1 C -4,7 C
23.12.2012 06:41 -1,1 C 93 % 1009,8 hPa 0,0 l/m 15,5 km/h (3 Bft) O-NO 67 -2,1 C -5,9 C
23.12.2012 06:46 -1,1 C 93 % 1009,7 hPa 0,0 l/m 8,3 km/h (2 Bft) O-NO 67 -2,1 C -4,1 C
23.12.2012 06:51 -1,1 C 93 % 1009,8 hPa 0,0 l/m 7,9 km/h (2 Bft) O-NO 67 -2,1 C -4,0 C
23.12.2012 06:56 -1,1 C 93 % 1009,7 hPa 0,0 l/m 7,2 km/h (2 Bft) O-NO 67 -2,1 C -3,8 C
23.12.2012 07:01 -1,1 C 93 % 1009,4 hPa 0,0 l/m 8,3 km/h (2 Bft) O-NO 67 -2,1 C -4,1 C
23.12.2012 07:06 -1,1 C 93 % 1009,4 hPa 0,0 l/m 16,2 km/h (3 Bft) O-NO 67 -2,1 C -6,0 C
23.12.2012 07:11 -1,1 C 93 % 1009,6 hPa 0,0 l/m 12,2 km/h (2 Bft) O-NO 67 -2,1 C -5,2 C
23.12.2012 07:16 -1,1 C 93 % 1009,3 hPa 0,0 l/m 10,1 km/h (2 Bft) O-NO 67 -2,1 C -4,7 C
23.12.2012 07:21 -1,1 C 93 % 1009,3 hPa 0,0 l/m 16,6 km/h (3 Bft) O-NO 67 -2,1 C -6,1 C
23.12.2012 07:26 -1,1 C 93 % 1009,2 hPa 0,0 l/m 14,4 km/h (3 Bft) O-NO 67 -2,1 C -5,7 C
23.12.2012 07:31 -1,1 C 93 % 1009,2 hPa 0,0 l/m 5,8 km/h (2 Bft) O-NO 67 -2,1 C -3,2 C
23.12.2012 07:36 -1,1 C 93 % 1009,2 hPa 0,0 l/m 7,2 km/h (2 Bft) O-NO 67 -2,1 C -3,8 C
23.12.2012 07:41 -1,1 C 93 % 1009,1 hPa 0,0 l/m 13,7 km/h (3 Bft) O-NO 67 -2,1 C -5,5 C
23.12.2012 07:46 -1,1 C 93 % 1009,1 hPa 0,0 l/m 14,4 km/h (3 Bft) O-NO 67 -2,1 C -5,7 C
23.12.2012 07:51 -1,1 C 93 % 1008,9 hPa 0,0 l/m 12,2 km/h (2 Bft) O-NO 67 -2,1 C -5,2 C
23.12.2012 07:56 -1,1 C 93 % 1009,1 hPa 0,0 l/m 11,2 km/h (2 Bft) O-NO 67 -2,1 C -4,9 C
23.12.2012 08:01 -1,1 C 93 % 1009,2 hPa 0,0 l/m 6,5 km/h (2 Bft) O-NO 67 -2,1 C -3,5 C
23.12.2012 08:06 -1,1 C 93 % 1009,2 hPa 0,0 l/m 11,9 km/h (2 Bft) O-NO 67 -2,1 C -5,1 C
23.12.2012 08:11 -1,1 C 93 % 1009,3 hPa 0,0 l/m 12,2 km/h (2 Bft) O-NO 67 -2,1 C -5,2 C
23.12.2012 08:16 -1,1 C 93 % 1009,2 hPa 0,0 l/m 9,7 km/h (2 Bft) O-NO 67 -2,1 C -4,5 C
23.12.2012 08:21 -1,1 C 93 % 1009,4 hPa 0,0 l/m 16,2 km/h (3 Bft) O-NO 67 -2,1 C -6,0 C
23.12.2012 08:26 -1,1 C 93 % 1009,1 hPa 0,0 l/m 16,2 km/h (3 Bft) O-NO 67 -2,1 C -6,0 C
23.12.2012 08:31 -1,1 C 93 % 1009,0 hPa 0,0 l/m 12,2 km/h (2 Bft) O-NO 67 -2,1 C -5,2 C
23.12.2012 08:36 -1,1 C 93 % 1008,8 hPa 0,0 l/m 13,0 km/h (3 Bft) O-NO 67 -2,1 C -5,4 C
23.12.2012 08:41 -1,2 C 93 % 1009,2 hPa 0,0 l/m 5,8 km/h (2 Bft) O-NO 67 -2,2 C -3,3 C
23.12.2012 08:46 -1,2 C 93 % 1009,1 hPa 0,0 l/m 7,6 km/h (2 Bft) O-NO 67 -2,2 C -4,0 C
23.12.2012 08:51 -1,2 C 93 % 1008,8 hPa 0,0 l/m 6,1 km/h (2 Bft) O-NO 67 -2,2 C -3,4 C
23.12.2012 08:56 -1,1 C 93 % 1008,8 hPa 0,0 l/m 9,7 km/h (2 Bft) O-NO 67 -2,1 C -4,5 C
23.12.2012 09:01 -1,1 C 93 % 1008,7 hPa 0,0 l/m 11,9 km/h (2 Bft) O-NO 67 -2,1 C -5,1 C
23.12.2012 09:06 -1,1 C 93 % 1008,8 hPa 0,0 l/m 5,0 km/h (1 Bft) O-NO 67 -2,1 C -2,8 C
23.12.2012 09:11 -1,1 C 93 % 1008,6 hPa 0,0 l/m 14,4 km/h (3 Bft) O-NO 67 -2,1 C -5,7 C
23.12.2012 09:16 -1,1 C 93 % 1008,5 hPa 0,0 l/m 16,6 km/h (3 Bft) O-NO 67 -2,1 C -6,1 C
23.12.2012 09:21 -1,1 C 93 % 1008,6 hPa 0,0 l/m 9,4 km/h (2 Bft) O-NO 67 -2,1 C -4,5 C
23.12.2012 09:26 -1,1 C 93 % 1008,4 hPa 0,0 l/m 9,0 km/h (2 Bft) O-NO 67 -2,1 C -4,3 C
23.12.2012 09:31 -1,1 C 93 % 1008,2 hPa 0,0 l/m 7,9 km/h (2 Bft) O-NO 67 -2,1 C -4,0 C
23.12.2012 09:36 -1,1 C 93 % 1008,4 hPa 0,0 l/m 8,6 km/h (2 Bft) O-NO 67 -2,1 C -4,2 C
23.12.2012 09:41 -1,1 C 93 % 1008,5 hPa 0,0 l/m 12,2 km/h (2 Bft) O-NO 67 -2,1 C -5,2 C
23.12.2012 09:46 -1,1 C 93 % 1008,3 hPa 0,0 l/m 12,6 km/h (3 Bft) O-NO 67 -2,1 C -5,3 C
23.12.2012 09:51 -1,1 C 93 % 1008,3 hPa 0,0 l/m 10,1 km/h (2 Bft) O-NO 67 -2,1 C -4,7 C
23.12.2012 09:56 -1,1 C 93 % 1008,4 hPa 0,0 l/m 15,1 km/h (3 Bft) O-NO 67 -2,1 C -5,8 C
23.12.2012 10:01 -1,0 C 93 % 1008,1 hPa 0,0 l/m 15,5 km/h (3 Bft) O-NO 67 -2,0 C -5,7 C
23.12.2012 10:06 -1,0 C 93 % 1008,2 hPa 0,0 l/m 14,4 km/h (3 Bft) O-NO 67 -2,0 C -5,5 C
23.12.2012 10:11 -1,0 C 93 % 1008,1 hPa 0,0 l/m 7,6 km/h (2 Bft) O-NO 67 -2,0 C -3,8 C
23.12.2012 10:16 -0,9 C 93 % 1008,0 hPa 0,0 l/m 12,6 km/h (3 Bft) O-NO 67 -1,9 C -5,0 C
23.12.2012 10:21 -0,9 C 93 % 1008,0 hPa 0,0 l/m 26,6 km/h (4 Bft) O-NO 67 -1,9 C -7,3 C
23.12.2012 10:26 -0,9 C 93 % 1007,9 hPa 0,0 l/m 13,3 km/h (3 Bft) O-NO 67 -1,9 C -5,2 C
23.12.2012 10:31 -0,8 C 93 % 1007,9 hPa 0,0 l/m 8,6 km/h (2 Bft) O-NO 67 -1,8 C -3,9 C
23.12.2012 10:36 -0,7 C 93 % 1007,6 hPa 0,0 l/m 11,2 km/h (2 Bft) O-NO 67 -1,7 C -4,5 C
23.12.2012 10:41 -0,6 C 93 % 1007,5 hPa 0,0 l/m 17,3 km/h (3 Bft) O-NO 67 -1,6 C -5,6 C
23.12.2012 10:46 -0,6 C 93 % 1007,7 hPa 0,0 l/m 13,0 km/h (3 Bft) O-NO 67 -1,6 C -4,8 C
23.12.2012 10:51 -0,5 C 93 % 1007,4 hPa 0,0 l/m 8,6 km/h (2 Bft) O-NO 67 -1,5 C -3,5 C
23.12.2012 10:56 -0,5 C 93 % 1007,3 hPa 0,0 l/m 14,8 km/h (3 Bft) O-NO 67 -1,5 C -5,0 C
23.12.2012 11:01 -0,4 C 93 % 1007,3 hPa 0,0 l/m 9,4 km/h (2 Bft) O-NO 67 -1,4 C -3,6 C
23.12.2012 11:06 -0,4 C 93 % 1007,3 hPa 0,0 l/m 14,4 km/h (3 Bft) O-NO 67 -1,4 C -4,8 C
23.12.2012 11:11 -0,4 C 93 % 1007,3 hPa 0,0 l/m 16,9 km/h (3 Bft) O-NO 67 -1,4 C -5,3 C
23.12.2012 11:16 -0,4 C 93 % 1007,0 hPa 0,0 l/m 13,3 km/h (3 Bft) O-NO 67 -1,4 C -4,6 C
23.12.2012 11:21 -0,4 C 93 % 1007,0 hPa 0,0 l/m 9,7 km/h (2 Bft) O-NO 67 -1,4 C -3,7 C
23.12.2012 11:26 -0,4 C 93 % 1007,1 hPa 0,0 l/m 11,2 km/h (2 Bft) O-NO 67 -1,4 C -4,1 C
23.12.2012 11:31 -0,4 C 92 % 1006,9 hPa 0,0 l/m 17,3 km/h (3 Bft) O-NO 67 -1,5 C -5,3 C
23.12.2012 11:36 -0,4 C 92 % 1006,8 hPa 0,0 l/m 7,2 km/h (2 Bft) O-NO 67 -1,5 C -2,9 C
23.12.2012 11:41 -0,3 C 92 % 1006,7 hPa 0,0 l/m 5,0 km/h (1 Bft) O-NO 67 -1,4 C -1,9 C
23.12.2012 11:46 -0,2 C 92 % 1006,8 hPa 0,0 l/m 9,7 km/h (2 Bft) O-NO 67 -1,3 C -3,5 C
23.12.2012 11:51 -0,2 C 92 % 1006,5 hPa 0,0 l/m 5,4 km/h (1 Bft) O-NO 67 -1,3 C -2,0 C
23.12.2012 11:56 -0,2 C 92 % 1006,7 hPa 0,0 l/m 12,6 km/h (3 Bft) O-NO 67 -1,3 C -4,2 C
23.12.2012 12:01 -0,2 C 92 % 1006,5 hPa 0,0 l/m 14,4 km/h (3 Bft) O-NO 67 -1,3 C -4,5 C
23.12.2012 12:06 -0,2 C 92 % 1006,0 hPa 0,0 l/m 0,0 km/h (0 Bft) O-NO 67 -1,3 C -0,2 C
23.12.2012 12:11 -0,2 C 92 % 1006,0 hPa 0,0 l/m 0,0 km/h (0 Bft) O-NO 67 -1,3 C -0,2 C
23.12.2012 12:16 -0,2 C 92 % 1006,1 hPa 0,0 l/m 0,0 km/h (0 Bft) O-NO 67 -1,3 C -0,2 C
23.12.2012 12:21 -0,2 C 92 % 1005,9 hPa 0,0 l/m 0,0 km/h (0 Bft) O-NO 67 -1,3 C -0,2 C
23.12.2012 12:26 -0,2 C 92 % 1005,9 hPa 0,0 l/m 0,0 km/h (0 Bft) O-NO 67 -1,3 C -0,2 C
23.12.2012 12:31 -0,2 C 92 % 1005,9 hPa 0,0 l/m 0,0 km/h (0 Bft) O-NO 67 -1,3 C -0,2 C
23.12.2012 12:36 -0,1 C 92 % 1005,9 hPa 0,0 l/m 0,0 km/h (0 Bft) O-NO 67 -1,2 C -0,1 C
23.12.2012 12:41 -0,1 C 92 % 1005,8 hPa 0,0 l/m 0,0 km/h (0 Bft) O-NO 67 -1,2 C -0,1 C
23.12.2012 12:46 -0,1 C 92 % 1005,7 hPa 0,0 l/m 0,0 km/h (0 Bft) O-NO 67 -1,2 C -0,1 C
23.12.2012 12:51 -0,1 C 92 % 1005,5 hPa 0,0 l/m 0,0 km/h (0 Bft) O-NO 67 -1,2 C -0,1 C
23.12.2012 12:56 -0,1 C 92 % 1005,3 hPa 0,0 l/m 0,0 km/h (0 Bft) O-NO 67 -1,2 C -0,1 C
23.12.2012 13:01 -0,1 C 92 % 1005,2 hPa 0,0 l/m 0,0 km/h (0 Bft) O-NO 67 -1,2 C -0,1 C
23.12.2012 13:06 -0,1 C 92 % 1005,1 hPa 0,0 l/m 0,0 km/h (0 Bft) O-NO 67 -1,2 C -0,1 C
23.12.2012 13:11 -0,1 C 92 % 1005,2 hPa 0,0 l/m 0,0 km/h (0 Bft) O-NO 67 -1,2 C -0,1 C
23.12.2012 13:16 -0,1 C 92 % 1005,2 hPa 0,0 l/m 0,0 km/h (0 Bft) O-NO 67 -1,2 C -0,1 C
23.12.2012 13:21 -0,1 C 92 % 1005,1 hPa 0,0 l/m 0,0 km/h (0 Bft) O-NO 67 -1,2 C -0,1 C
23.12.2012 13:26 -0,1 C 93 % 1005,1 hPa 0,0 l/m 0,0 km/h (0 Bft) O-NO 67 -1,1 C -0,1 C
23.12.2012 13:31 -0,1 C 93 % 1005,1 hPa 0,0 l/m 0,0 km/h (0 Bft) O-NO 67 -1,1 C -0,1 C
23.12.2012 13:36 -0,1 C 93 % 1005,0 hPa 0,0 l/m 0,0 km/h (0 Bft) O-NO 67 -1,1 C -0,1 C
23.12.2012 13:41 -0,1 C 93 % 1004,8 hPa 0,0 l/m 0,0 km/h (0 Bft) O-NO 67 -1,1 C -0,1 C
23.12.2012 13:46 0,0 C 93 % 1004,7 hPa 0,0 l/m 0,0 km/h (0 Bft) O-NO 67 -1,0 C 0,0 C
23.12.2012 13:51 0,1 C 93 % 1004,8 hPa 0,0 l/m 0,0 km/h (0 Bft) O-NO 67 -0,9 C 0,1 C
23.12.2012 13:56 0,1 C 93 % 1004,8 hPa 0,0 l/m 0,0 km/h (0 Bft) O-NO 67 -0,9 C 0,1 C
23.12.2012 14:01 0,1 C 93 % 1004,8 hPa 0,0 l/m 0,0 km/h (0 Bft) O-NO 67 -0,9 C 0,1 C
23.12.2012 14:06 0,1 C 93 % 1004,7 hPa 0,0 l/m 0,0 km/h (0 Bft) O-NO 67 -0,9 C 0,1 C
23.12.2012 14:11 0,1 C 93 % 1004,7 hPa 0,0 l/m 0,0 km/h (0 Bft) O-NO 67 -0,9 C 0,1 C
23.12.2012 14:16 0,1 C 93 % 1004,7 hPa 0,0 l/m 0,0 km/h (0 Bft) O-NO 67 -0,9 C 0,1 C
23.12.2012 14:21 0,1 C 93 % 1004,6 hPa 0,0 l/m 0,0 km/h (0 Bft) O-NO 67 -0,9 C 0,1 C
23.12.2012 14:26 0,1 C 93 % 1004,6 hPa 0,0 l/m 0,0 km/h (0 Bft) O-NO 67 -0,9 C 0,1 C
23.12.2012 14:31 0,1 C 93 % 1004,5 hPa 0,0 l/m 0,0 km/h (0 Bft) O-NO 67 -0,9 C 0,1 C
23.12.2012 14:36 0,1 C 93 % 1004,6 hPa 0,0 l/m 0,0 km/h (0 Bft) O-NO 67 -0,9 C 0,1 C
23.12.2012 14:41 0,2 C 93 % 1004,6 hPa 0,0 l/m 0,0 km/h (0 Bft) O-NO 67 -0,8 C 0,2 C
23.12.2012 14:46 0,2 C 93 % 1004,7 hPa 0,0 l/m 0,0 km/h (0 Bft) O-NO 67 -0,8 C 0,2 C
23.12.2012 14:51 0,2 C 93 % 1004,7 hPa 0,0 l/m 0,0 km/h (0 Bft) O-NO 67 -0,8 C 0,2 C
23.12.2012 14:56 0,2 C 93 % 1004,8 hPa 0,0 l/m 0,0 km/h (0 Bft) O-NO 67 -0,8 C 0,2 C
23.12.2012 15:01 0,2 C 93 % 1004,8 hPa 0,0 l/m 0,0 km/h (0 Bft) O-NO 67 -0,8 C 0,2 C
23.12.2012 15:06 0,2 C 93 % 1004,9 hPa 0,0 l/m 0,0 km/h (0 Bft) O-NO 67 -0,8 C 0,2 C
23.12.2012 15:11 0,3 C 93 % 1005,1 hPa 0,0 l/m 0,0 km/h (0 Bft) O-NO 67 -0,7 C 0,3 C
23.12.2012 15:16 0,3 C 93 % 1004,3 hPa 0,0 l/m 0,0 km/h (0 Bft) O-NO 67 -0,7 C 0,3 C
23.12.2012 15:21 0,3 C 93 % 1005,1 hPa 0,0 l/m 0,0 km/h (0 Bft) O-NO 67 -0,7 C 0,3 C
23.12.2012 15:26 0,3 C 93 % 1004,4 hPa 0,0 l/m 0,0 km/h (0 Bft) O-NO 67 -0,7 C 0,3 C
23.12.2012 15:31 0,3 C 93 % 1005,1 hPa 0,0 l/m 0,0 km/h (0 Bft) O-NO 67 -0,7 C 0,3 C
23.12.2012 15:36 0,3 C 94 % 1005,1 hPa 0,0 l/m 0,0 km/h (0 Bft) O-NO 67 -0,5 C 0,3 C
23.12.2012 15:41 0,3 C 94 % 1004,8 hPa 0,0 l/m 0,0 km/h (0 Bft) O-NO 67 -0,5 C 0,3 C
23.12.2012 15:46 0,3 C 94 % 1004,5 hPa 0,0 l/m 0,0 km/h (0 Bft) O-NO 67 -0,5 C 0,3 C
23.12.2012 15:51 0,3 C 94 % 1004,8 hPa 0,0 l/m 0,0 km/h (0 Bft) O-NO 67 -0,5 C 0,3 C
23.12.2012 15:56 0,3 C 94 % 1004,9 hPa 0,0 l/m 0,0 km/h (0 Bft) O-NO 67 -0,5 C 0,3 C
23.12.2012 16:01 0,4 C 94 % 1004,8 hPa 0,0 l/m 0,0 km/h (0 Bft) O-NO 67 -0,5 C 0,4 C
23.12.2012 16:06 0,4 C 94 % 1004,6 hPa 0,0 l/m 0,0 km/h (0 Bft) O-NO 67 -0,5 C 0,4 C
23.12.2012 16:11 0,4 C 94 % 1004,5 hPa 0,0 l/m 0,0 km/h (0 Bft) O-NO 67 -0,5 C 0,4 C
23.12.2012 16:16 0,4 C 94 % 1004,3 hPa 0,0 l/m 0,0 km/h (0 Bft) O-NO 67 -0,5 C 0,4 C
23.12.2012 16:21 0,4 C 94 % 1004,6 hPa 0,0 l/m 0,0 km/h (0 Bft) O-NO 67 -0,5 C 0,4 C
23.12.2012 16:26 0,4 C 94 % 1004,4 hPa 0,0 l/m 0,0 km/h (0 Bft) O-NO 67 -0,5 C 0,4 C
23.12.2012 16:31 0,4 C 94 % 1005,0 hPa 0,0 l/m 0,0 km/h (0 Bft) O-NO 67 -0,5 C 0,4 C
23.12.2012 16:36 0,4 C 94 % 1005,2 hPa 0,0 l/m 0,0 km/h (0 Bft) O-NO 67 -0,5 C 0,4 C
23.12.2012 16:41 0,4 C 94 % 1005,1 hPa 0,0 l/m 0,0 km/h (0 Bft) O-NO 67 -0,5 C 0,4 C
23.12.2012 16:46 0,4 C 94 % 1004,9 hPa 0,0 l/m 0,0 km/h (0 Bft) O-NO 67 -0,5 C 0,4 C
23.12.2012 16:51 0,4 C 94 % 1004,6 hPa 0,0 l/m 0,0 km/h (0 Bft) O-NO 67 -0,5 C 0,4 C
23.12.2012 16:56 0,4 C 94 % 1004,5 hPa 0,0 l/m 0,0 km/h (0 Bft) O-NO 67 -0,5 C 0,4 C
23.12.2012 17:01 0,4 C 94 % 1004,6 hPa 0,0 l/m 0,0 km/h (0 Bft) O-NO 67 -0,5 C 0,4 C
23.12.2012 17:06 0,4 C 94 % 1004,6 hPa 0,0 l/m 0,0 km/h (0 Bft) O-NO 67 -0,5 C 0,4 C
23.12.2012 17:11 0,4 C 94 % 1004,6 hPa 0,0 l/m 0,0 km/h (0 Bft) O-NO 67 -0,5 C 0,4 C
23.12.2012 17:16 0,5 C 94 % 1004,9 hPa 0,0 l/m 0,0 km/h (0 Bft) O-NO 67 -0,4 C 0,5 C
23.12.2012 17:21 0,5 C 94 % 1004,6 hPa 0,0 l/m 0,0 km/h (0 Bft) O-NO 67 -0,4 C 0,5 C
23.12.2012 17:26 0,5 C 94 % 1005,0 hPa 0,0 l/m 0,0 km/h (0 Bft) O-NO 67 -0,4 C 0,5 C
23.12.2012 17:31 0,5 C 94 % 1004,9 hPa 0,0 l/m 0,0 km/h (0 Bft) O-NO 67 -0,4 C 0,5 C
23.12.2012 17:36 0,5 C 94 % 1004,9 hPa 0,0 l/m 0,0 km/h (0 Bft) O-NO 67 -0,4 C 0,5 C
23.12.2012 17:41 0,5 C 94 % 1004,7 hPa 0,0 l/m 0,0 km/h (0 Bft) O-NO 67 -0,4 C 0,5 C
23.12.2012 17:46 0,5 C 94 % 1004,6 hPa 0,0 l/m 0,0 km/h (0 Bft) O-NO 67 -0,4 C 0,5 C
23.12.2012 17:51 0,5 C 94 % 1004,6 hPa 0,0 l/m 0,0 km/h (0 Bft) O-NO 67 -0,4 C 0,5 C
23.12.2012 17:56 0,5 C 94 % 1004,9 hPa 0,0 l/m 0,0 km/h (0 Bft) O-NO 67 -0,4 C 0,5 C
23.12.2012 18:01 0,6 C 94 % 1004,8 hPa 0,0 l/m 0,0 km/h (0 Bft) O-NO 67 -0,3 C 0,6 C
23.12.2012 18:06 0,6 C 94 % 1005,0 hPa 0,0 l/m 0,0 km/h (0 Bft) O-NO 67 -0,3 C 0,6 C
23.12.2012 18:11 0,5 C 94 % 1005,0 hPa 0,0 l/m 0,0 km/h (0 Bft) O-NO 67 -0,4 C 0,5 C
23.12.2012 18:16 0,6 C 94 % 1005,0 hPa 0,0 l/m 0,0 km/h (0 Bft) O-NO 67 -0,3 C 0,6 C
23.12.2012 18:21 0,6 C 94 % 1005,2 hPa 0,0 l/m 0,0 km/h (0 Bft) O-NO 67 -0,3 C 0,6 C
23.12.2012 18:26 0,6 C 94 % 1005,2 hPa 0,0 l/m 0,0 km/h (0 Bft) O-NO 67 -0,3 C 0,6 C
23.12.2012 18:31 0,6 C 94 % 1005,2 hPa 0,0 l/m 0,0 km/h (0 Bft) O-NO 67 -0,3 C 0,6 C
23.12.2012 18:36 0,6 C 94 % 1005,3 hPa 0,0 l/m 0,0 km/h (0 Bft) O-NO 67 -0,3 C 0,6 C
23.12.2012 18:41 0,6 C 94 % 1005,1 hPa 0,0 l/m 0,0 km/h (0 Bft) O-NO 67 -0,3 C 0,6 C
23.12.2012 18:46 0,6 C 94 % 1004,8 hPa 0,0 l/m 0,0 km/h (0 Bft) O-NO 67 -0,3 C 0,6 C
23.12.2012 18:51 0,6 C 94 % 1005,0 hPa 0,0 l/m 0,0 km/h (0 Bft) O-NO 67 -0,3 C 0,6 C
23.12.2012 18:56 0,6 C 94 % 1005,0 hPa 0,0 l/m 0,0 km/h (0 Bft) O-NO 67 -0,3 C 0,6 C
23.12.2012 19:01 0,6 C 94 % 1004,9 hPa 0,0 l/m 0,0 km/h (0 Bft) O-NO 67 -0,3 C 0,6 C
23.12.2012 19:06 0,6 C 94 % 1005,1 hPa 0,0 l/m 0,0 km/h (0 Bft) O-NO 67 -0,3 C 0,6 C
23.12.2012 19:11 0,6 C 94 % 1005,0 hPa 0,0 l/m 0,0 km/h (0 Bft) O-NO 67 -0,3 C 0,6 C
23.12.2012 19:16 0,6 C 94 % 1005,0 hPa 0,0 l/m 0,0 km/h (0 Bft) O-NO 67 -0,3 C 0,6 C
23.12.2012 19:21 0,6 C 94 % 1005,0 hPa 0,0 l/m 0,0 km/h (0 Bft) O-NO 67 -0,3 C 0,6 C
23.12.2012 19:26 0,6 C 94 % 1005,0 hPa 0,0 l/m 0,0 km/h (0 Bft) O-NO 67 -0,3 C 0,6 C
23.12.2012 19:31 0,6 C 94 % 1005,3 hPa 0,0 l/m 0,0 km/h (0 Bft) O-NO 67 -0,3 C 0,6 C
23.12.2012 19:36 0,6 C 94 % 1005,3 hPa 0,0 l/m 0,0 km/h (0 Bft) O-NO 67 -0,3 C 0,6 C
23.12.2012 19:41 0,6 C 94 % 1005,4 hPa 0,0 l/m 0,0 km/h (0 Bft) O-NO 67 -0,3 C 0,6 C
23.12.2012 19:46 0,6 C 94 % 1005,5 hPa 0,0 l/m 0,0 km/h (0 Bft) O-NO 67 -0,3 C 0,6 C
23.12.2012 19:51 0,7 C 94 % 1005,3 hPa 0,0 l/m 0,0 km/h (0 Bft) O-NO 67 -0,2 C 0,7 C
23.12.2012 19:56 0,7 C 94 % 1005,3 hPa 0,0 l/m 0,0 km/h (0 Bft) O-NO 67 -0,2 C 0,7 C
23.12.2012 20:01 0,8 C 94 % 1005,5 hPa 0,0 l/m 0,0 km/h (0 Bft) O-NO 67 -0,1 C 0,8 C
23.12.2012 20:06 0,8 C 94 % 1005,4 hPa 0,0 l/m 0,0 km/h (0 Bft) O-NO 67 -0,1 C 0,8 C
23.12.2012 20:11 0,8 C 94 % 1005,5 hPa 0,0 l/m 0,0 km/h (0 Bft) O-NO 67 -0,1 C 0,8 C
23.12.2012 20:16 0,9 C 94 % 1005,3 hPa 0,0 l/m 0,0 km/h (0 Bft) O-NO 67 0,0 C 0,9 C
23.12.2012 20:21 0,9 C 94 % 1005,7 hPa 0,0 l/m 0,0 km/h (0 Bft) O-NO 67 0,0 C 0,9 C
23.12.2012 20:26 0,9 C 94 % 1005,8 hPa 0,0 l/m 0,0 km/h (0 Bft) O-NO 67 0,0 C 0,9 C
23.12.2012 20:31 0,9 C 94 % 1005,7 hPa 0,0 l/m 0,0 km/h (0 Bft) O-NO 67 0,0 C 0,9 C
23.12.2012 20:36 0,9 C 94 % 1005,6 hPa 0,0 l/m 0,0 km/h (0 Bft) O-NO 67 0,0 C 0,9 C
23.12.2012 20:41 0,9 C 94 % 1005,7 hPa 0,0 l/m 0,0 km/h (0 Bft) O-NO 67 0,0 C 0,9 C
23.12.2012 20:46 0,9 C 94 % 1005,5 hPa 0,0 l/m 0,0 km/h (0 Bft) O-NO 67 0,0 C 0,9 C
23.12.2012 20:51 0,9 C 94 % 1005,3 hPa 0,0 l/m 0,0 km/h (0 Bft) O-NO 67 0,0 C 0,9 C
23.12.2012 20:56 1,0 C 94 % 1005,2 hPa 0,0 l/m 0,0 km/h (0 Bft) O-NO 67 0,1 C 1,0 C
23.12.2012 21:01 0,9 C 94 % 1005,4 hPa 0,0 l/m 0,0 km/h (0 Bft) O-NO 67 0,0 C 0,9 C
23.12.2012 21:06 1,0 C 94 % 1005,6 hPa 0,0 l/m 0,0 km/h (0 Bft) O-NO 67 0,1 C 1,0 C
23.12.2012 21:11 1,0 C 94 % 1005,7 hPa 0,0 l/m 0,0 km/h (0 Bft) O-NO 67 0,1 C 1,0 C
23.12.2012 21:16 1,0 C 94 % 1005,7 hPa 0,0 l/m 0,0 km/h (0 Bft) O-NO 67 0,1 C 1,0 C
23.12.2012 21:21 1,0 C 94 % 1005,6 hPa 0,0 l/m 0,0 km/h (0 Bft) O-NO 67 0,1 C 1,0 C
23.12.2012 21:26 1,1 C 94 % 1005,4 hPa 0,0 l/m 0,0 km/h (0 Bft) O-NO 67 0,2 C 1,1 C
23.12.2012 21:31 1,1 C 94 % 1005,5 hPa 0,0 l/m 0,0 km/h (0 Bft) O-NO 67 0,2 C 1,1 C
23.12.2012 21:36 1,1 C 94 % 1005,6 hPa 0,0 l/m 0,0 km/h (0 Bft) O-NO 67 0,2 C 1,1 C
23.12.2012 21:41 1,2 C 94 % 1005,7 hPa 0,0 l/m 0,0 km/h (0 Bft) O-NO 67 0,3 C 1,2 C
23.12.2012 21:46 1,2 C 94 % 1005,8 hPa 0,0 l/m 0,0 km/h (0 Bft) O-NO 67 0,3 C 1,2 C
23.12.2012 21:51 1,3 C 94 % 1005,7 hPa 0,0 l/m 0,0 km/h (0 Bft) O-NO 67 0,4 C 1,3 C
23.12.2012 21:56 1,3 C 94 % 1005,7 hPa 0,0 l/m 0,0 km/h (0 Bft) O-NO 67 0,4 C 1,3 C
23.12.2012 22:01 1,3 C 94 % 1005,8 hPa 0,5 l/m 0,0 km/h (0 Bft) O-NO 67 0,4 C 1,3 C
23.12.2012 22:06 1,3 C 94 % 1005,7 hPa 0,0 l/m 0,0 km/h (0 Bft) O-NO 67 0,4 C 1,3 C
23.12.2012 22:11 1,3 C 94 % 1005,8 hPa 0,0 l/m 0,0 km/h (0 Bft) O-NO 67 0,4 C 1,3 C
23.12.2012 22:16 1,4 C 94 % 1005,9 hPa 0,0 l/m 0,0 km/h (0 Bft) O-NO 67 0,5 C 1,4 C
23.12.2012 22:21 1,5 C 94 % 1006,0 hPa 0,0 l/m 0,0 km/h (0 Bft) O-NO 67 0,6 C 1,5 C
23.12.2012 22:26 1,4 C 94 % 1006,0 hPa 0,0 l/m 0,0 km/h (0 Bft) O-NO 67 0,5 C 1,4 C
23.12.2012 22:31 1,5 C 94 % 1006,2 hPa 0,0 l/m 0,0 km/h (0 Bft) O-NO 67 0,6 C 1,5 C
23.12.2012 22:36 1,5 C 94 % 1006,1 hPa 0,0 l/m 1,4 km/h (1 Bft) O-NO 67 0,6 C 1,5 C
23.12.2012 22:41 1,5 C 94 % 1006,1 hPa 0,0 l/m 2,2 km/h (1 Bft) O-NO 67 0,6 C 1,5 C
23.12.2012 22:46 1,5 C 94 % 1006,2 hPa 0,0 l/m 1,4 km/h (1 Bft) O-NO 67 0,6 C 1,5 C
23.12.2012 22:51 1,6 C 94 % 1006,1 hPa 0,0 l/m 0,0 km/h (0 Bft) O-NO 67 0,7 C 1,6 C
23.12.2012 22:56 1,6 C 94 % 1006,2 hPa 0,0 l/m 0,0 km/h (0 Bft) O-NO 67 0,7 C 1,6 C
23.12.2012 23:01 1,6 C 94 % 1006,1 hPa 0,0 l/m 0,0 km/h (0 Bft) O-NO 67 0,7 C 1,6 C
23.12.2012 23:06 1,6 C 94 % 1006,2 hPa 0,0 l/m 1,1 km/h (1 Bft) O-NO 67 0,7 C 1,6 C
23.12.2012 23:11 1,6 C 94 % 1006,2 hPa 0,0 l/m 0,0 km/h (0 Bft) O-NO 67 0,7 C 1,6 C
23.12.2012 23:16 1,6 C 94 % 1006,3 hPa 0,0 l/m 1,1 km/h (1 Bft) O-NO 67 0,7 C 1,6 C
23.12.2012 23:21 1,6 C 94 % 1006,3 hPa 0,0 l/m 0,0 km/h (0 Bft) O-NO 67 0,7 C 1,6 C
23.12.2012 23:26 1,8 C 94 % 1006,3 hPa 0,0 l/m 0,0 km/h (0 Bft) O-NO 67 0,9 C 1,8 C
23.12.2012 23:31 1,9 C 94 % 1006,3 hPa 0,0 l/m 6,8 km/h (2 Bft) O-NO 67 1,0 C -0,1 C
23.12.2012 23:36 2,1 C 94 % 1006,3 hPa 0,0 l/m 5,4 km/h (1 Bft) O-NO 67 1,2 C 0,6 C
23.12.2012 23:41 2,3 C 94 % 1006,4 hPa 0,0 l/m 5,4 km/h (1 Bft) O-NO 67 1,4 C 0,9 C
23.12.2012 23:46 2,4 C 94 % 1006,4 hPa 0,0 l/m 3,6 km/h (1 Bft) O-NO 67 1,5 C 2,4 C
23.12.2012 23:51 2,6 C 94 % 1006,5 hPa 0,0 l/m 0,0 km/h (0 Bft) O 90 1,7 C 2,6 C
23.12.2012 23:56 2,9 C 94 % 1006,6 hPa 0,5 l/m 7,9 km/h (2 Bft) O 90 2,0 C 0,7 C
_ Min-Zeit 00:46 11:31 15:16 - 12:06 - - 00:46 02:16
Minimum _ -2,1 C 92 % 1004,3 hPa - 0,0 km/h (0 Bft) - - -3,1 C -8,0 C
_ Max-Zeit 23:56 15:36 00:01 22:01 10:21 - - 23:56 23:51
Maximum _ 2,9 C 94 % 1013,6 hPa 0,5 l/m 26,6 km/h
O-NO (4 Bft)
- - 2,0 C 2,6 C
Durchschnitt _ -0,3 C 93 % 1007,7 hPa #1,0 l/m 6,2 km/h (2 Bft) O-NO - -1,2 C -2,3 C
(c) by David Heller